sensor_id;sensor_type;location;lat;lon;timestamp;pressure;altitude;pressure_sealevel;temperature;humidity
63306;BME280;50735;52.060;1.248;2023-02-21T00:01:50;101766.13;;;7.37;59.03
63306;BME280;50735;52.060;1.248;2023-02-21T00:04:16;101765.38;;;7.11;59.76
63306;BME280;50735;52.060;1.248;2023-02-21T00:06:43;101770.96;;;7.36;59.52
63306;BME280;50735;52.060;1.248;2023-02-21T00:09:10;101775.63;;;6.91;60.15
63306;BME280;50735;52.060;1.248;2023-02-21T00:11:40;101775.18;;;6.78;60.53
63306;BME280;50735;52.060;1.248;2023-02-21T00:14:07;101775.82;;;6.87;60.12
63306;BME280;50735;52.060;1.248;2023-02-21T00:16:34;101772.22;;;6.90;60.05
63306;BME280;50735;52.060;1.248;2023-02-21T00:19:02;101767.58;;;7.01;59.62
63306;BME280;50735;52.060;1.248;2023-02-21T00:21:29;101764.41;;;6.89;59.98
63306;BME280;50735;52.060;1.248;2023-02-21T00:23:56;101761.12;;;6.87;60.10
63306;BME280;50735;52.060;1.248;2023-02-21T00:26:23;101759.24;;;6.75;60.32
63306;BME280;50735;52.060;1.248;2023-02-21T00:28:50;101766.26;;;6.11;61.84
63306;BME280;50735;52.060;1.248;2023-02-21T00:31:18;101764.95;;;6.37;61.28
63306;BME280;50735;52.060;1.248;2023-02-21T00:33:45;101765.41;;;6.87;61.06
63306;BME280;50735;52.060;1.248;2023-02-21T00:36:15;101765.86;;;6.54;61.62
63306;BME280;50735;52.060;1.248;2023-02-21T00:38:42;101766.57;;;6.13;63.34
63306;BME280;50735;52.060;1.248;2023-02-21T00:41:09;101763.83;;;5.94;62.69
63306;BME280;50735;52.060;1.248;2023-02-21T00:43:36;101762.73;;;5.90;64.18
63306;BME280;50735;52.060;1.248;2023-02-21T00:46:03;101767.44;;;5.77;64.45
63306;BME280;50735;52.060;1.248;2023-02-21T00:48:30;101763.96;;;5.58;64.81
63306;BME280;50735;52.060;1.248;2023-02-21T00:50:58;101760.37;;;6.45;62.82
63306;BME280;50735;52.060;1.248;2023-02-21T00:53:25;101761.01;;;6.42;62.38
63306;BME280;50735;52.060;1.248;2023-02-21T00:55:52;101761.87;;;6.50;62.77
63306;BME280;50735;52.060;1.248;2023-02-21T00:58:20;101755.77;;;6.42;63.03
63306;BME280;50735;52.060;1.248;2023-02-21T01:00:47;101752.36;;;6.75;62.17
63306;BME280;50735;52.060;1.248;2023-02-21T01:03:14;101746.00;;;6.21;63.59
63306;BME280;50735;52.060;1.248;2023-02-21T01:05:41;101745.10;;;6.31;63.30
63306;BME280;50735;52.060;1.248;2023-02-21T01:08:07;101744.76;;;6.35;62.93
63306;BME280;50735;52.060;1.248;2023-02-21T01:10:35;101742.09;;;6.42;63.00
63306;BME280;50735;52.060;1.248;2023-02-21T01:13:02;101743.77;;;6.23;63.69
63306;BME280;50735;52.060;1.248;2023-02-21T01:15:29;101740.36;;;6.57;62.83
63306;BME280;50735;52.060;1.248;2023-02-21T01:17:56;101736.18;;;6.99;61.92
63306;BME280;50735;52.060;1.248;2023-02-21T01:20:23;101740.05;;;6.91;62.03
63306;BME280;50735;52.060;1.248;2023-02-21T01:22:50;101748.10;;;6.73;62.42
63306;BME280;50735;52.060;1.248;2023-02-21T01:25:17;101742.11;;;6.77;62.31
63306;BME280;50735;52.060;1.248;2023-02-21T01:27:43;101739.81;;;6.67;62.20
63306;BME280;50735;52.060;1.248;2023-02-21T01:30:10;101737.21;;;6.88;62.01
63306;BME280;50735;52.060;1.248;2023-02-21T01:32:38;101738.83;;;6.55;61.88
63306;BME280;50735;52.060;1.248;2023-02-21T01:35:05;101734.39;;;6.81;61.63
63306;BME280;50735;52.060;1.248;2023-02-21T01:37:31;101731.13;;;7.07;61.43
63306;BME280;50735;52.060;1.248;2023-02-21T01:39:59;101730.45;;;6.94;60.66
63306;BME280;50735;52.060;1.248;2023-02-21T01:42:26;101731.68;;;6.95;60.77
63306;BME280;50735;52.060;1.248;2023-02-21T01:45:30;101733.70;;;7.00;60.59
63306;BME280;50735;52.060;1.248;2023-02-21T01:48:03;101730.52;;;7.46;60.00
63306;BME280;50735;52.060;1.248;2023-02-21T01:50:31;101737.32;;;7.25;60.67
63306;BME280;50735;52.060;1.248;2023-02-21T01:52:59;101740.61;;;7.34;60.30
63306;BME280;50735;52.060;1.248;2023-02-21T01:55:27;101740.73;;;7.17;60.87
63306;BME280;50735;52.060;1.248;2023-02-21T01:57:55;101739.02;;;7.04;60.44
63306;BME280;50735;52.060;1.248;2023-02-21T02:00:23;101738.57;;;7.44;60.18
63306;BME280;50735;52.060;1.248;2023-02-21T02:02:53;101737.19;;;7.57;59.79
63306;BME280;50735;52.060;1.248;2023-02-21T02:05:22;101743.59;;;7.66;59.90
63306;BME280;50735;52.060;1.248;2023-02-21T02:07:51;101747.11;;;7.18;60.63
63306;BME280;50735;52.060;1.248;2023-02-21T02:10:19;101746.60;;;6.99;61.27
63306;BME280;50735;52.060;1.248;2023-02-21T02:12:59;101750.85;;;6.43;63.33
63306;BME280;50735;52.060;1.248;2023-02-21T02:15:42;101753.80;;;6.25;62.48
63306;BME280;50735;52.060;1.248;2023-02-21T02:18:39;101755.10;;;6.89;61.86
63306;BME280;50735;52.060;1.248;2023-02-21T02:21:26;101751.79;;;6.87;61.48
63306;BME280;50735;52.060;1.248;2023-02-21T02:24:22;101749.97;;;6.95;60.68
63306;BME280;50735;52.060;1.248;2023-02-21T02:27:13;101749.09;;;7.07;60.52
63306;BME280;50735;52.060;1.248;2023-02-21T02:30:02;101746.63;;;7.09;61.04
63306;BME280;50735;52.060;1.248;2023-02-21T02:32:38;101739.86;;;6.77;61.22
63306;BME280;50735;52.060;1.248;2023-02-21T02:35:13;101742.19;;;7.30;60.51
63306;BME280;50735;52.060;1.248;2023-02-21T02:37:50;101740.14;;;7.10;60.45
63306;BME280;50735;52.060;1.248;2023-02-21T02:40:24;101742.56;;;7.27;59.92
63306;BME280;50735;52.060;1.248;2023-02-21T02:43:01;101741.78;;;7.02;61.30
63306;BME280;50735;52.060;1.248;2023-02-21T02:45:33;101742.44;;;7.23;60.09
63306;BME280;50735;52.060;1.248;2023-02-21T02:48:05;101744.04;;;7.57;59.42
63306;BME280;50735;52.060;1.248;2023-02-21T02:50:34;101749.04;;;7.63;59.12
63306;BME280;50735;52.060;1.248;2023-02-21T02:53:02;101751.57;;;7.86;58.64
63306;BME280;50735;52.060;1.248;2023-02-21T02:55:35;101750.20;;;7.97;58.33
63306;BME280;50735;52.060;1.248;2023-02-21T02:58:04;101750.13;;;8.31;57.77
63306;BME280;50735;52.060;1.248;2023-02-21T03:00:34;101747.12;;;7.65;59.02
63306;BME280;50735;52.060;1.248;2023-02-21T03:03:17;101745.10;;;7.97;58.29
63306;BME280;50735;52.060;1.248;2023-02-21T03:05:58;101741.10;;;7.79;58.12
63306;BME280;50735;52.060;1.248;2023-02-21T03:08:35;101740.27;;;7.98;58.10
63306;BME280;50735;52.060;1.248;2023-02-21T03:11:09;101737.89;;;8.10;57.88
63306;BME280;50735;52.060;1.248;2023-02-21T03:13:42;101734.13;;;7.96;58.09
63306;BME280;50735;52.060;1.248;2023-02-21T03:16:17;101736.04;;;8.07;57.72
63306;BME280;50735;52.060;1.248;2023-02-21T03:18:48;101736.19;;;7.97;57.89
63306;BME280;50735;52.060;1.248;2023-02-21T03:21:18;101739.37;;;8.12;57.67
63306;BME280;50735;52.060;1.248;2023-02-21T03:23:50;101736.08;;;7.99;57.48
63306;BME280;50735;52.060;1.248;2023-02-21T03:26:18;101735.04;;;8.30;57.31
63306;BME280;50735;52.060;1.248;2023-02-21T03:28:45;101737.35;;;8.47;56.93
63306;BME280;50735;52.060;1.248;2023-02-21T03:31:15;101738.65;;;8.54;56.67
63306;BME280;50735;52.060;1.248;2023-02-21T03:33:43;101736.03;;;8.57;56.57
63306;BME280;50735;52.060;1.248;2023-02-21T03:36:10;101729.52;;;8.64;56.78
63306;BME280;50735;52.060;1.248;2023-02-21T03:38:37;101722.60;;;8.42;56.80
63306;BME280;50735;52.060;1.248;2023-02-21T03:41:05;101722.69;;;8.32;56.88
63306;BME280;50735;52.060;1.248;2023-02-21T03:43:33;101721.94;;;8.38;56.78
63306;BME280;50735;52.060;1.248;2023-02-21T03:46:00;101717.20;;;8.20;57.22
63306;BME280;50735;52.060;1.248;2023-02-21T03:48:27;101717.88;;;7.94;57.13
63306;BME280;50735;52.060;1.248;2023-02-21T03:50:54;101723.44;;;8.23;57.58
63306;BME280;50735;52.060;1.248;2023-02-21T03:53:20;101727.25;;;8.10;57.22
63306;BME280;50735;52.060;1.248;2023-02-21T03:55:47;101724.85;;;7.90;57.43
63306;BME280;50735;52.060;1.248;2023-02-21T03:58:14;101724.55;;;8.10;57.17
63306;BME280;50735;52.060;1.248;2023-02-21T04:00:40;101724.64;;;7.82;57.04
63306;BME280;50735;52.060;1.248;2023-02-21T04:03:07;101724.33;;;8.16;57.02
63306;BME280;50735;52.060;1.248;2023-02-21T04:05:34;101722.67;;;8.20;56.98
63306;BME280;50735;52.060;1.248;2023-02-21T04:08:02;101720.17;;;8.17;56.99
63306;BME280;50735;52.060;1.248;2023-02-21T04:10:29;101719.11;;;8.32;56.80
63306;BME280;50735;52.060;1.248;2023-02-21T04:12:56;101720.52;;;8.19;56.68
63306;BME280;50735;52.060;1.248;2023-02-21T04:15:23;101716.11;;;8.26;56.44
63306;BME280;50735;52.060;1.248;2023-02-21T04:17:49;101715.04;;;8.50;56.32
63306;BME280;50735;52.060;1.248;2023-02-21T04:20:17;101714.23;;;8.22;57.07
63306;BME280;50735;52.060;1.248;2023-02-21T04:22:44;101714.41;;;8.16;56.98
63306;BME280;50735;52.060;1.248;2023-02-21T04:25:11;101716.73;;;8.22;56.83
63306;BME280;50735;52.060;1.248;2023-02-21T04:27:38;101718.53;;;8.30;56.67
63306;BME280;50735;52.060;1.248;2023-02-21T04:30:05;101715.73;;;8.26;56.71
63306;BME280;50735;52.060;1.248;2023-02-21T04:32:32;101710.40;;;8.00;57.01
63306;BME280;50735;52.060;1.248;2023-02-21T04:34:59;101707.94;;;8.14;56.59
63306;BME280;50735;52.060;1.248;2023-02-21T04:37:26;101704.53;;;8.39;56.47
63306;BME280;50735;52.060;1.248;2023-02-21T04:39:53;101703.95;;;8.46;56.22
63306;BME280;50735;52.060;1.248;2023-02-21T04:42:20;101707.15;;;8.56;56.13
63306;BME280;50735;52.060;1.248;2023-02-21T04:44:47;101706.18;;;8.63;55.84
63306;BME280;50735;52.060;1.248;2023-02-21T04:47:14;101707.87;;;8.50;55.67
63306;BME280;50735;52.060;1.248;2023-02-21T04:49:40;101706.14;;;8.72;55.61
63306;BME280;50735;52.060;1.248;2023-02-21T04:52:07;101706.04;;;8.74;55.40
63306;BME280;50735;52.060;1.248;2023-02-21T04:54:34;101707.59;;;8.71;55.50
63306;BME280;50735;52.060;1.248;2023-02-21T04:57:01;101704.82;;;8.47;55.47
63306;BME280;50735;52.060;1.248;2023-02-21T04:59:28;101703.16;;;8.59;55.70
63306;BME280;50735;52.060;1.248;2023-02-21T05:01:55;101704.37;;;8.57;55.71
63306;BME280;50735;52.060;1.248;2023-02-21T05:04:22;101702.53;;;8.44;55.68
63306;BME280;50735;52.060;1.248;2023-02-21T05:06:50;101701.40;;;8.49;55.76
63306;BME280;50735;52.060;1.248;2023-02-21T05:09:16;101702.05;;;8.33;56.10
63306;BME280;50735;52.060;1.248;2023-02-21T05:11:43;101698.84;;;8.13;56.52
63306;BME280;50735;52.060;1.248;2023-02-21T05:14:10;101695.81;;;8.17;56.51
63306;BME280;50735;52.060;1.248;2023-02-21T05:16:37;101691.75;;;7.95;56.98
63306;BME280;50735;52.060;1.248;2023-02-21T05:19:03;101690.52;;;7.77;57.50
63306;BME280;50735;52.060;1.248;2023-02-21T05:21:33;101692.20;;;7.56;57.43
63306;BME280;50735;52.060;1.248;2023-02-21T05:24:00;101694.67;;;7.49;58.19
63306;BME280;50735;52.060;1.248;2023-02-21T05:26:31;101696.01;;;7.45;58.16
63306;BME280;50735;52.060;1.248;2023-02-21T05:28:59;101696.84;;;7.48;58.01
63306;BME280;50735;52.060;1.248;2023-02-21T05:31:26;101694.15;;;7.57;57.69
63306;BME280;50735;52.060;1.248;2023-02-21T05:33:52;101692.72;;;7.75;57.41
63306;BME280;50735;52.060;1.248;2023-02-21T05:36:19;101691.23;;;7.91;56.95
63306;BME280;50735;52.060;1.248;2023-02-21T05:38:48;101689.63;;;7.54;58.10
63306;BME280;50735;52.060;1.248;2023-02-21T05:41:17;101687.92;;;7.62;57.57
63306;BME280;50735;52.060;1.248;2023-02-21T05:43:44;101686.50;;;7.60;57.59
63306;BME280;50735;52.060;1.248;2023-02-21T05:46:22;101683.55;;;7.75;57.21
63306;BME280;50735;52.060;1.248;2023-02-21T05:48:49;101681.59;;;7.80;57.02
63306;BME280;50735;52.060;1.248;2023-02-21T05:51:15;101679.66;;;7.76;56.98
63306;BME280;50735;52.060;1.248;2023-02-21T05:53:42;101679.81;;;7.99;56.58
63306;BME280;50735;52.060;1.248;2023-02-21T05:56:09;101681.17;;;8.05;56.56
63306;BME280;50735;52.060;1.248;2023-02-21T05:58:36;101678.04;;;7.88;56.84
63306;BME280;50735;52.060;1.248;2023-02-21T06:01:03;101677.51;;;7.95;56.57
63306;BME280;50735;52.060;1.248;2023-02-21T06:03:31;101675.94;;;7.89;56.67
63306;BME280;50735;52.060;1.248;2023-02-21T06:05:58;101679.79;;;8.06;56.43
63306;BME280;50735;52.060;1.248;2023-02-21T06:08:25;101679.29;;;8.10;56.11
63306;BME280;50735;52.060;1.248;2023-02-21T06:10:52;101672.80;;;7.84;56.68
63306;BME280;50735;52.060;1.248;2023-02-21T06:13:19;101672.80;;;7.56;57.29
63306;BME280;50735;52.060;1.248;2023-02-21T06:15:46;101675.14;;;7.59;57.06
63306;BME280;50735;52.060;1.248;2023-02-21T06:18:14;101679.23;;;7.59;57.00
63306;BME280;50735;52.060;1.248;2023-02-21T06:20:41;101673.25;;;7.67;56.82
63306;BME280;50735;52.060;1.248;2023-02-21T06:23:08;101673.56;;;7.68;57.07
63306;BME280;50735;52.060;1.248;2023-02-21T06:25:35;101669.88;;;7.42;57.09
63306;BME280;50735;52.060;1.248;2023-02-21T06:28:02;101669.28;;;7.06;58.03
63306;BME280;50735;52.060;1.248;2023-02-21T06:30:29;101670.59;;;7.17;57.61
63306;BME280;50735;52.060;1.248;2023-02-21T06:32:56;101673.64;;;7.24;57.55
63306;BME280;50735;52.060;1.248;2023-02-21T06:35:22;101676.34;;;7.53;56.98
63306;BME280;50735;52.060;1.248;2023-02-21T06:37:49;101677.07;;;7.77;56.58
63306;BME280;50735;52.060;1.248;2023-02-21T06:40:16;101677.47;;;7.87;56.27
63306;BME280;50735;52.060;1.248;2023-02-21T06:42:43;101677.83;;;8.01;56.05
63306;BME280;50735;52.060;1.248;2023-02-21T06:45:10;101676.91;;;8.28;56.03
63306;BME280;50735;52.060;1.248;2023-02-21T06:47:37;101677.42;;;8.21;55.77
63306;BME280;50735;52.060;1.248;2023-02-21T06:50:05;101678.72;;;8.34;55.45
63306;BME280;50735;52.060;1.248;2023-02-21T06:52:32;101680.65;;;8.32;55.59
63306;BME280;50735;52.060;1.248;2023-02-21T06:54:59;101681.54;;;8.30;55.63
63306;BME280;50735;52.060;1.248;2023-02-21T06:57:26;101678.67;;;8.29;55.62
63306;BME280;50735;52.060;1.248;2023-02-21T06:59:53;101676.64;;;8.18;56.10
63306;BME280;50735;52.060;1.248;2023-02-21T07:02:20;101674.13;;;8.26;55.81
63306;BME280;50735;52.060;1.248;2023-02-21T07:04:47;101671.30;;;8.36;55.71
63306;BME280;50735;52.060;1.248;2023-02-21T07:07:15;101669.46;;;8.26;55.55
63306;BME280;50735;52.060;1.248;2023-02-21T07:09:41;101669.80;;;8.46;55.39
63306;BME280;50735;52.060;1.248;2023-02-21T07:12:08;101668.84;;;8.54;55.20
63306;BME280;50735;52.060;1.248;2023-02-21T07:14:35;101667.62;;;8.55;55.05
63306;BME280;50735;52.060;1.248;2023-02-21T07:17:02;101669.62;;;8.36;55.52
63306;BME280;50735;52.060;1.248;2023-02-21T07:19:29;101670.56;;;8.44;55.46
63306;BME280;50735;52.060;1.248;2023-02-21T07:21:55;101671.02;;;8.52;55.30
63306;BME280;50735;52.060;1.248;2023-02-21T07:24:22;101675.29;;;8.62;55.35
63306;BME280;50735;52.060;1.248;2023-02-21T07:26:49;101675.53;;;8.49;54.77
63306;BME280;50735;52.060;1.248;2023-02-21T07:29:16;101675.40;;;8.54;55.00
63306;BME280;50735;52.060;1.248;2023-02-21T07:31:42;101676.51;;;8.60;54.78
63306;BME280;50735;52.060;1.248;2023-02-21T07:34:09;101677.50;;;8.62;54.60
63306;BME280;50735;52.060;1.248;2023-02-21T07:36:37;101675.67;;;8.60;54.35
63306;BME280;50735;52.060;1.248;2023-02-21T07:39:04;101674.37;;;8.58;54.39
63306;BME280;50735;52.060;1.248;2023-02-21T07:41:31;101674.59;;;8.60;54.37
63306;BME280;50735;52.060;1.248;2023-02-21T07:43:58;101678.67;;;8.57;54.16
63306;BME280;50735;52.060;1.248;2023-02-21T07:46:27;101680.35;;;8.54;54.05
63306;BME280;50735;52.060;1.248;2023-02-21T07:48:54;101682.43;;;8.47;54.36
63306;BME280;50735;52.060;1.248;2023-02-21T07:51:22;101684.56;;;8.26;54.51
63306;BME280;50735;52.060;1.248;2023-02-21T07:53:49;101688.29;;;8.27;54.91
63306;BME280;50735;52.060;1.248;2023-02-21T07:56:15;101687.36;;;8.30;55.00
63306;BME280;50735;52.060;1.248;2023-02-21T07:58:42;101685.59;;;8.17;54.92
63306;BME280;50735;52.060;1.248;2023-02-21T08:01:09;101682.43;;;8.14;55.08
63306;BME280;50735;52.060;1.248;2023-02-21T08:03:36;101681.91;;;8.23;57.01
63306;BME280;50735;52.060;1.248;2023-02-21T08:06:03;101681.82;;;8.36;55.76
63306;BME280;50735;52.060;1.248;2023-02-21T08:08:30;101685.34;;;8.34;55.38
63306;BME280;50735;52.060;1.248;2023-02-21T08:10:57;101691.07;;;8.37;55.43
63306;BME280;50735;52.060;1.248;2023-02-21T08:13:24;101694.44;;;8.33;55.01
63306;BME280;50735;52.060;1.248;2023-02-21T08:15:51;101689.87;;;8.34;54.78
63306;BME280;50735;52.060;1.248;2023-02-21T08:18:20;101690.97;;;8.35;54.69
63306;BME280;50735;52.060;1.248;2023-02-21T08:20:47;101684.24;;;8.28;54.69
63306;BME280;50735;52.060;1.248;2023-02-21T08:23:14;101686.54;;;8.17;54.70
63306;BME280;50735;52.060;1.248;2023-02-21T08:25:41;101686.06;;;8.44;55.46
63306;BME280;50735;52.060;1.248;2023-02-21T08:28:07;101684.90;;;8.51;54.87
63306;BME280;50735;52.060;1.248;2023-02-21T08:30:34;101683.38;;;8.42;54.27
63306;BME280;50735;52.060;1.248;2023-02-21T08:33:01;101683.30;;;8.23;54.10
63306;BME280;50735;52.060;1.248;2023-02-21T08:35:28;101675.59;;;8.09;54.59
63306;BME280;50735;52.060;1.248;2023-02-21T08:37:55;101676.35;;;8.07;54.31
63306;BME280;50735;52.060;1.248;2023-02-21T08:40:22;101676.86;;;8.11;54.46
63306;BME280;50735;52.060;1.248;2023-02-21T08:42:50;101675.92;;;8.37;54.35
63306;BME280;50735;52.060;1.248;2023-02-21T08:45:19;101677.01;;;7.98;54.46
63306;BME280;50735;52.060;1.248;2023-02-21T08:47:47;101676.69;;;8.13;54.55
63306;BME280;50735;52.060;1.248;2023-02-21T08:50:15;101676.96;;;8.26;54.35
63306;BME280;50735;52.060;1.248;2023-02-21T08:52:41;101674.39;;;8.06;54.53
63306;BME280;50735;52.060;1.248;2023-02-21T08:55:08;101672.46;;;8.08;54.43
63306;BME280;50735;52.060;1.248;2023-02-21T08:57:35;101673.67;;;7.93;54.44
63306;BME280;50735;52.060;1.248;2023-02-21T09:00:03;101675.72;;;7.77;54.84
63306;BME280;50735;52.060;1.248;2023-02-21T09:02:30;101680.03;;;7.74;55.10
63306;BME280;50735;52.060;1.248;2023-02-21T09:04:57;101679.04;;;7.91;54.78
63306;BME280;50735;52.060;1.248;2023-02-21T09:07:24;101676.59;;;8.16;54.39
63306;BME280;50735;52.060;1.248;2023-02-21T09:09:52;101675.33;;;8.36;54.18
63306;BME280;50735;52.060;1.248;2023-02-21T09:12:18;101674.38;;;8.53;53.96
63306;BME280;50735;52.060;1.248;2023-02-21T09:14:46;101672.97;;;8.62;53.72
63306;BME280;50735;52.060;1.248;2023-02-21T09:17:13;101670.63;;;8.55;53.65
63306;BME280;50735;52.060;1.248;2023-02-21T09:19:40;101671.03;;;8.51;53.81
63306;BME280;50735;52.060;1.248;2023-02-21T09:22:08;101670.77;;;8.40;53.91
63306;BME280;50735;52.060;1.248;2023-02-21T09:24:36;101669.33;;;8.43;53.71
63306;BME280;50735;52.060;1.248;2023-02-21T09:27:03;101667.05;;;8.30;54.01
63306;BME280;50735;52.060;1.248;2023-02-21T09:29:32;101669.79;;;8.27;54.41
63306;BME280;50735;52.060;1.248;2023-02-21T09:31:59;101669.40;;;8.51;53.91
63306;BME280;50735;52.060;1.248;2023-02-21T09:34:27;101668.11;;;8.47;60.63
63306;BME280;50735;52.060;1.248;2023-02-21T09:36:54;101663.48;;;8.90;54.16
63306;BME280;50735;52.060;1.248;2023-02-21T09:39:21;101662.20;;;8.62;53.72
63306;BME280;50735;52.060;1.248;2023-02-21T09:41:49;101662.33;;;8.59;53.19
63306;BME280;50735;52.060;1.248;2023-02-21T09:44:19;101664.93;;;8.76;53.34
63306;BME280;50735;52.060;1.248;2023-02-21T09:46:49;101661.74;;;8.69;53.14
63306;BME280;50735;52.060;1.248;2023-02-21T09:49:22;101657.12;;;8.45;53.18
63306;BME280;50735;52.060;1.248;2023-02-21T09:51:51;101658.87;;;8.57;53.40
63306;BME280;50735;52.060;1.248;2023-02-21T09:54:23;101659.26;;;8.67;53.60
63306;BME280;50735;52.060;1.248;2023-02-21T09:56:50;101665.79;;;8.53;53.54
63306;BME280;50735;52.060;1.248;2023-02-21T09:59:17;101668.86;;;8.34;53.74
63306;BME280;50735;52.060;1.248;2023-02-21T10:01:52;101668.35;;;8.01;54.00
63306;BME280;50735;52.060;1.248;2023-02-21T10:04:30;101667.08;;;8.27;53.85
63306;BME280;50735;52.060;1.248;2023-02-21T10:07:11;101666.77;;;8.28;53.34
63306;BME280;50735;52.060;1.248;2023-02-21T10:09:43;101664.84;;;8.56;53.33
63306;BME280;50735;52.060;1.248;2023-02-21T10:12:21;101667.90;;;8.39;53.42
63306;BME280;50735;52.060;1.248;2023-02-21T10:15:02;101668.69;;;8.03;54.40
63306;BME280;50735;52.060;1.248;2023-02-21T10:17:38;101665.16;;;8.27;54.14
63306;BME280;50735;52.060;1.248;2023-02-21T10:20:13;101663.84;;;8.51;53.58
63306;BME280;50735;52.060;1.248;2023-02-21T10:22:43;101661.12;;;8.57;53.35
63306;BME280;50735;52.060;1.248;2023-02-21T10:25:21;101657.58;;;8.60;52.96
63306;BME280;50735;52.060;1.248;2023-02-21T10:27:49;101654.42;;;8.74;52.88
63306;BME280;50735;52.060;1.248;2023-02-21T10:30:25;101655.09;;;8.92;52.74
63306;BME280;50735;52.060;1.248;2023-02-21T10:32:54;101652.46;;;8.92;52.96
63306;BME280;50735;52.060;1.248;2023-02-21T10:35:21;101652.61;;;8.99;52.72
63306;BME280;50735;52.060;1.248;2023-02-21T10:37:50;101654.54;;;8.81;52.60
63306;BME280;50735;52.060;1.248;2023-02-21T10:40:26;101652.69;;;8.49;53.03
63306;BME280;50735;52.060;1.248;2023-02-21T10:43:00;101652.36;;;8.52;53.21
63306;BME280;50735;52.060;1.248;2023-02-21T10:45:34;101654.11;;;8.61;52.94
63306;BME280;50735;52.060;1.248;2023-02-21T10:48:04;101655.03;;;8.53;53.25
63306;BME280;50735;52.060;1.248;2023-02-21T10:50:39;101654.02;;;8.33;53.48
63306;BME280;50735;52.060;1.248;2023-02-21T10:53:07;101654.88;;;8.29;53.48
63306;BME280;50735;52.060;1.248;2023-02-21T10:55:34;101654.94;;;8.19;53.36
63306;BME280;50735;52.060;1.248;2023-02-21T10:58:07;101648.19;;;8.23;52.90
63306;BME280;50735;52.060;1.248;2023-02-21T11:00:37;101649.09;;;8.27;53.12
63306;BME280;50735;52.060;1.248;2023-02-21T11:03:06;101649.10;;;7.79;53.78
63306;BME280;50735;52.060;1.248;2023-02-21T11:05:38;101645.03;;;7.81;53.96
63306;BME280;50735;52.060;1.248;2023-02-21T11:08:07;101644.94;;;8.22;53.56
63306;BME280;50735;52.060;1.248;2023-02-21T11:10:37;101639.63;;;7.89;53.68
63306;BME280;50735;52.060;1.248;2023-02-21T11:13:12;101638.23;;;7.82;54.03
63306;BME280;50735;52.060;1.248;2023-02-21T11:15:40;101636.64;;;8.11;53.25
63306;BME280;50735;52.060;1.248;2023-02-21T11:18:16;101633.72;;;7.81;53.63
63306;BME280;50735;52.060;1.248;2023-02-21T11:20:45;101635.22;;;7.90;53.52
63306;BME280;50735;52.060;1.248;2023-02-21T11:23:22;101637.09;;;7.98;53.52
63306;BME280;50735;52.060;1.248;2023-02-21T11:25:56;101626.01;;;7.90;53.76
63306;BME280;50735;52.060;1.248;2023-02-21T11:28:24;101621.47;;;7.99;53.45
63306;BME280;50735;52.060;1.248;2023-02-21T11:31:07;101620.09;;;7.83;54.66
63306;BME280;50735;52.060;1.248;2023-02-21T11:33:36;101617.38;;;7.95;53.63
63306;BME280;50735;52.060;1.248;2023-02-21T11:36:09;101612.27;;;7.82;53.35
63306;BME280;50735;52.060;1.248;2023-02-21T11:38:38;101604.83;;;8.26;53.37
63306;BME280;50735;52.060;1.248;2023-02-21T11:41:17;101598.07;;;8.24;52.94
63306;BME280;50735;52.060;1.248;2023-02-21T11:43:47;101592.24;;;8.26;53.69
63306;BME280;50735;52.060;1.248;2023-02-21T11:46:20;101590.39;;;8.30;53.40
63306;BME280;50735;52.060;1.248;2023-02-21T11:49:02;101590.51;;;8.31;53.09
63306;BME280;50735;52.060;1.248;2023-02-21T11:51:35;101587.75;;;8.78;52.42
63306;BME280;50735;52.060;1.248;2023-02-21T11:54:04;101580.95;;;8.53;52.33
63306;BME280;50735;52.060;1.248;2023-02-21T11:56:40;101575.51;;;8.22;52.89
63306;BME280;50735;52.060;1.248;2023-02-21T11:59:18;101567.97;;;8.59;52.01
63306;BME280;50735;52.060;1.248;2023-02-21T12:01:53;101555.54;;;8.35;51.88
63306;BME280;50735;52.060;1.248;2023-02-21T12:04:33;101548.20;;;8.72;51.68
63306;BME280;50735;52.060;1.248;2023-02-21T12:07:13;101552.40;;;8.84;51.42
63306;BME280;50735;52.060;1.248;2023-02-21T12:09:45;101557.21;;;8.61;51.18
63306;BME280;50735;52.060;1.248;2023-02-21T12:12:26;101550.62;;;8.67;51.29
63306;BME280;50735;52.060;1.248;2023-02-21T12:15:04;101544.65;;;8.80;51.08
63306;BME280;50735;52.060;1.248;2023-02-21T12:17:59;101541.23;;;8.42;51.03
63306;BME280;50735;52.060;1.248;2023-02-21T12:20:40;101543.22;;;8.39;51.30
63306;BME280;50735;52.060;1.248;2023-02-21T12:23:15;101547.50;;;7.96;52.29
63306;BME280;50735;52.060;1.248;2023-02-21T12:25:56;101542.07;;;7.93;52.29
63306;BME280;50735;52.060;1.248;2023-02-21T12:28:36;101541.41;;;8.27;52.27
63306;BME280;50735;52.060;1.248;2023-02-21T12:31:15;101537.44;;;8.16;52.98
63306;BME280;50735;52.060;1.248;2023-02-21T12:33:55;101531.13;;;8.42;52.79
63306;BME280;50735;52.060;1.248;2023-02-21T12:36:37;101521.80;;;8.65;52.71
63306;BME280;50735;52.060;1.248;2023-02-21T12:39:16;101522.50;;;8.64;52.07
63306;BME280;50735;52.060;1.248;2023-02-21T12:41:58;101516.08;;;8.57;52.15
63306;BME280;50735;52.060;1.248;2023-02-21T12:44:35;101510.19;;;8.87;51.59
63306;BME280;50735;52.060;1.248;2023-02-21T12:47:10;101509.47;;;8.50;52.19
63306;BME280;50735;52.060;1.248;2023-02-21T12:49:44;101501.10;;;8.99;51.81
63306;BME280;50735;52.060;1.248;2023-02-21T12:52:20;101500.26;;;8.73;50.68
63306;BME280;50735;52.060;1.248;2023-02-21T12:54:56;101496.22;;;8.65;50.59
63306;BME280;50735;52.060;1.248;2023-02-21T12:57:29;101494.49;;;9.10;50.46
63306;BME280;50735;52.060;1.248;2023-02-21T13:00:03;101489.11;;;9.00;50.82
63306;BME280;50735;52.060;1.248;2023-02-21T13:02:38;101484.50;;;8.98;50.79
63306;BME280;50735;52.060;1.248;2023-02-21T13:05:12;101482.99;;;8.79;50.80
63306;BME280;50735;52.060;1.248;2023-02-21T13:07:45;101478.58;;;8.74;51.19
63306;BME280;50735;52.060;1.248;2023-02-21T13:10:18;101472.84;;;8.83;51.00
63306;BME280;50735;52.060;1.248;2023-02-21T13:12:49;101468.37;;;9.30;50.88
63306;BME280;50735;52.060;1.248;2023-02-21T13:15:22;101469.20;;;9.83;49.67